AirNav  
 
 1096 users online  

3AZ1 Pixley-Richards Gilbert Heliport
Gilbert, Arizona, USA

GOING TO GILBERT?


FAA INFORMATION EFFECTIVE 25 MARCH 2021

Location

FAA Identifier: 3AZ1
Lat/Long: 33-22-20.1710N 111-50-11.5020W
33-22.336183N 111-50.191700W
33.3722697,-111.8365283
(estimated)
Elevation: 1231 ft. / 375 m (estimated)
Variation: 13E (1985)
Time zone: UTC -7 (year round; does not observe DST)
Zip code: 85233

Heliport Operations

Heliport use: Private use. Permission required prior to landing
Activation date: 04/1988
Control tower: no
ARTCC: ALBUQUERQUE CENTER
FSS: PRESCOTT FLIGHT SERVICE STATION
Attendance: UNATNDD
Segmented circle: no

Heliport Communications

WX AWOS-3PT at CHD (6 nm S): 128.325 (480-814-9952)
WX ASOS at FFZ (8 nm NE): PHONE 480-641-4111
WX ASOS at PHX (10 nm NW): PHONE 602-231-8557
WX AWOS-3 at IWA (10 nm SE): 133.5 (480-988-9428)
WX ASOS at SDL (15 nm N): PHONE 480-483-3049

Nearby radio navigation aids

VOR radial/distance  VOR name  Freq  Var
PXRr107/7.6PHOENIX VORTAC115.6012E
IWAr281/10.2WILLIE VORTAC113.3013E
TFDr355/29.4STANFIELD VORTAC114.8012E

 
NDB name  Hdg/Dist  Freq  Var  ID
CHANDLER335/6.540712ECHD -.-. .... -..

Heliport Services

Runway Information

Helipad H1

Dimensions: 38 x 38 ft. / 12 x 12 m
Surface: concrete
ROOFTOP
Traffic pattern: leftleft

Heliport Ownership and Management from official FAA records

Ownership: Privately-owned
Owner: INTESYS TECHNOLOGIES INC
1300 N FIESTA BLVD
GILBERT, AZ 85234
Phone 602-497-1401
Manager: ROBERT T HILL
1300 N FIESTA BLVD
GILBERT, AZ 85234
Phone 602-497-1401

Additional Remarks

FOR CD CTC PHOENIX APCH AT 602-306-2565.

Instrument Procedures

There are no published instrument procedures at 3AZ1.

Some nearby airports with instrument procedures:

P19 - Stellar Airpark (6 nm SW)
KCHD - Chandler Municipal Airport (6 nm S)
KFFZ - Falcon Field Airport (8 nm NE)
KPHX - Phoenix Sky Harbor International Airport (10 nm NW)
KIWA - Phoenix-Mesa Gateway Airport (10 nm SE)
KSDL - Scottsdale Airport (15 nm N)
 
Loc | Ops | Rwys | IFR | FBO | Links
Com | Nav | Svcs | Stats | Notes
Area around 3AZ1 (Pixley-Richards Gilbert Heliport)
 
Road maps at: MapQuest Bing Google
 
Aerial photo
No photo
 
Sectional chart

 
Airport distance calculator
Flying to Pixley-Richards Gilbert Heliport? Find the distance to fly.

From to 3AZ1

Sunrise and sunset
Times for 17-Apr-2021
 Local
(UTC-7)
 Zulu
(UTC)
Morning civil twilight05:3012:30
Sunrise05:5612:56
Sunset18:5801:58
Evening civil twilight19:2402:24

Current date and time
Zulu (UTC)  17-Apr-2021 13:39:19
Local (UTC-7)  17-Apr-2021 06:39:19
 
METAR
KCHD 
6nm S 
162347Z 22009KT 10SM BKN250 27/M13 A2979
KFFZ 
8nm NE 
171254Z AUTO 02007KT 10SM CLR 16/M09 A2984 RMK AO2 SLP087 T01561094 TSNO
KIWA 
10nm SE 
171250Z 09012KT 10SM SKC 11/M09 A2986
KPHX 
11nm W 
171251Z 00000KT 10SM FEW170 15/M05 A2983 RMK AO2 SLP087 T01501050 $
KSDL 
15nm N 
171253Z 32005KT 10SM CLR 16/M07 A2985 RMK AO2 SLP091 T01561072
TAF
KIWA 
10nm SE 
171120Z 1712/1812 13007KT P6SM SKC FM171700 28005KT P6SM FEW140 FM172100 29011G20KT P6SM SCT150 FM180100 28008KT P6SM FEW140 FM180500 10005KT P6SM SKC
KPHX 
11nm W 
171120Z 1712/1818 10004KT P6SM SKC FM171900 28007KT P6SM FEW150 FM172200 28012G20KT P6SM SCT150 FM180300 32005KT P6SM FEW140 FM180900 10007KT P6SM SKC
KSDL 
15nm N 
171120Z 1712/1812 VRB04KT P6SM SKC FM171800 23006KT P6SM SKC FM172100 26010G18KT P6SM SCT140 FM180200 28007KT P6SM FEW250 FM180500 VRB04KT P6SM SKC
NOTAMs
Click for the latest NOTAMs
NOTAMs are issued by the DoD/FAA and will open in a separate window not controlled by AirNav.

 

 
 

Would you like to see your business listed on this page?

 If your business provides an interesting product or service to pilots, flight crews, aircraft, or users of the Pixley-Richards Gilbert Heliport, you should consider listing it here.  To start the listing process, click on the button below
 
Add a business
 

Other Pages about Pixley-Richards Gilbert Heliport

Update a link
 
Copyright © AirNav, LLC. All rights reserved. Privacy Policy  Contact